sensor_id;sensor_type;location;lat;lon;timestamp;pressure;altitude;pressure_sealevel;temperature;humidity
85224;BME280;75619;51.316;4.824;2024-02-21T00:00:13;102126.09;;;8.43;100.00
85224;BME280;75619;51.316;4.824;2024-02-21T00:02:39;102120.53;;;8.49;100.00
85224;BME280;75619;51.316;4.824;2024-02-21T00:05:04;102113.69;;;8.45;100.00
85224;BME280;75619;51.316;4.824;2024-02-21T00:07:30;102109.34;;;8.44;100.00
85224;BME280;75619;51.316;4.824;2024-02-21T00:09:55;102101.38;;;8.46;100.00
85224;BME280;75619;51.316;4.824;2024-02-21T00:12:21;102096.03;;;8.47;100.00
85224;BME280;75619;51.316;4.824;2024-02-21T00:14:47;102090.06;;;8.44;100.00
85224;BME280;75619;51.316;4.824;2024-02-21T00:17:12;102088.34;;;8.43;100.00
85224;BME280;75619;51.316;4.824;2024-02-21T00:19:37;102089.28;;;8.42;100.00
85224;BME280;75619;51.316;4.824;2024-02-21T00:22:03;102083.94;;;8.43;100.00
85224;BME280;75619;51.316;4.824;2024-02-21T00:24:29;102091.97;;;8.40;100.00
85224;BME280;75619;51.316;4.824;2024-02-21T00:26:54;102092.41;;;8.31;100.00
85224;BME280;75619;51.316;4.824;2024-02-21T00:29:20;102088.00;;;8.32;100.00
85224;BME280;75619;51.316;4.824;2024-02-21T00:31:47;102087.84;;;8.35;100.00
85224;BME280;75619;51.316;4.824;2024-02-21T00:34:12;102084.41;;;8.33;100.00
85224;BME280;75619;51.316;4.824;2024-02-21T00:36:38;102076.66;;;8.30;100.00
85224;BME280;75619;51.316;4.824;2024-02-21T00:39:04;102068.03;;;8.26;100.00
85224;BME280;75619;51.316;4.824;2024-02-21T00:41:29;102067.16;;;8.26;100.00
85224;BME280;75619;51.316;4.824;2024-02-21T00:43:55;102072.75;;;8.18;100.00
85224;BME280;75619;51.316;4.824;2024-02-21T00:46:20;102068.63;;;8.12;100.00
85224;BME280;75619;51.316;4.824;2024-02-21T00:48:46;102074.09;;;8.08;100.00
85224;BME280;75619;51.316;4.824;2024-02-21T00:51:11;102070.41;;;8.12;100.00
85224;BME280;75619;51.316;4.824;2024-02-21T00:53:37;102062.31;;;8.16;100.00
85224;BME280;75619;51.316;4.824;2024-02-21T00:56:05;102053.19;;;8.24;100.00
85224;BME280;75619;51.316;4.824;2024-02-21T00:58:30;102051.84;;;8.15;100.00
85224;BME280;75619;51.316;4.824;2024-02-21T01:00:56;102038.88;;;8.10;100.00
85224;BME280;75619;51.316;4.824;2024-02-21T01:03:22;102039.88;;;8.08;100.00
85224;BME280;75619;51.316;4.824;2024-02-21T01:05:47;102042.19;;;7.95;100.00
85224;BME280;75619;51.316;4.824;2024-02-21T01:08:13;102044.91;;;7.94;100.00
85224;BME280;75619;51.316;4.824;2024-02-21T01:10:38;102036.53;;;7.84;100.00
85224;BME280;75619;51.316;4.824;2024-02-21T01:13:04;102033.28;;;7.79;100.00
85224;BME280;75619;51.316;4.824;2024-02-21T01:15:29;102027.22;;;7.77;100.00
85224;BME280;75619;51.316;4.824;2024-02-21T01:17:55;102023.13;;;7.70;100.00
85224;BME280;75619;51.316;4.824;2024-02-21T01:20:21;102044.38;;;7.66;100.00
85224;BME280;75619;51.316;4.824;2024-02-21T01:22:46;102036.19;;;7.73;100.00
85224;BME280;75619;51.316;4.824;2024-02-21T01:25:12;102026.25;;;7.80;100.00
85224;BME280;75619;51.316;4.824;2024-02-21T01:27:38;102016.41;;;7.83;100.00
85224;BME280;75619;51.316;4.824;2024-02-21T01:30:04;102010.22;;;7.84;100.00
85224;BME280;75619;51.316;4.824;2024-02-21T01:32:31;102017.19;;;7.85;100.00
85224;BME280;75619;51.316;4.824;2024-02-21T01:34:56;102011.78;;;7.88;100.00
85224;BME280;75619;51.316;4.824;2024-02-21T01:37:22;102012.38;;;7.95;100.00
85224;BME280;75619;51.316;4.824;2024-02-21T01:39:47;102003.34;;;8.00;100.00
85224;BME280;75619;51.316;4.824;2024-02-21T01:42:14;102015.50;;;8.03;100.00
85224;BME280;75619;51.316;4.824;2024-02-21T01:44:40;102010.31;;;8.01;100.00
85224;BME280;75619;51.316;4.824;2024-02-21T01:47:06;102000.56;;;8.03;100.00
85224;BME280;75619;51.316;4.824;2024-02-21T01:49:33;101994.22;;;8.07;100.00
85224;BME280;75619;51.316;4.824;2024-02-21T01:51:59;101988.06;;;8.08;100.00
85224;BME280;75619;51.316;4.824;2024-02-21T01:54:25;101981.84;;;8.09;100.00
85224;BME280;75619;51.316;4.824;2024-02-21T01:56:54;101986.13;;;8.12;100.00
85224;BME280;75619;51.316;4.824;2024-02-21T01:59:21;101981.63;;;8.14;100.00
85224;BME280;75619;51.316;4.824;2024-02-21T02:01:46;101987.97;;;8.10;100.00
85224;BME280;75619;51.316;4.824;2024-02-21T02:04:13;101980.19;;;8.07;100.00
85224;BME280;75619;51.316;4.824;2024-02-21T02:06:40;101977.56;;;8.07;100.00
85224;BME280;75619;51.316;4.824;2024-02-21T02:09:06;101974.16;;;8.05;100.00
85224;BME280;75619;51.316;4.824;2024-02-21T02:11:32;101973.16;;;8.07;100.00
85224;BME280;75619;51.316;4.824;2024-02-21T02:13:57;101973.16;;;8.07;100.00
85224;BME280;75619;51.316;4.824;2024-02-21T02:16:23;101973.09;;;8.09;100.00
85224;BME280;75619;51.316;4.824;2024-02-21T02:18:48;101964.34;;;8.08;100.00
85224;BME280;75619;51.316;4.824;2024-02-21T02:21:45;101959.38;;;8.02;100.00
85224;BME280;75619;51.316;4.824;2024-02-21T02:24:08;101957.28;;;7.90;100.00
85224;BME280;75619;51.316;4.824;2024-02-21T02:26:34;101960.97;;;7.86;100.00
85224;BME280;75619;51.316;4.824;2024-02-21T02:29:01;101960.97;;;7.86;100.00
85224;BME280;75619;51.316;4.824;2024-02-21T02:31:27;101967.03;;;7.88;100.00
85224;BME280;75619;51.316;4.824;2024-02-21T02:33:53;101964.78;;;7.99;100.00
85224;BME280;75619;51.316;4.824;2024-02-21T02:36:18;101958.44;;;8.03;100.00
85224;BME280;75619;51.316;4.824;2024-02-21T02:38:44;101961.72;;;8.08;100.00
85224;BME280;75619;51.316;4.824;2024-02-21T02:41:10;101946.81;;;8.07;100.00
85224;BME280;75619;51.316;4.824;2024-02-21T02:43:35;101952.66;;;8.14;100.00
85224;BME280;75619;51.316;4.824;2024-02-21T02:46:02;101948.41;;;8.11;100.00
85224;BME280;75619;51.316;4.824;2024-02-21T02:48:29;101935.78;;;8.18;100.00
85224;BME280;75619;51.316;4.824;2024-02-21T02:50:54;101941.44;;;8.10;100.00
85224;BME280;75619;51.316;4.824;2024-02-21T02:53:20;101941.16;;;8.16;100.00
85224;BME280;75619;51.316;4.824;2024-02-21T02:55:46;101947.19;;;8.18;100.00
85224;BME280;75619;51.316;4.824;2024-02-21T02:58:11;101938.63;;;8.13;100.00
85224;BME280;75619;51.316;4.824;2024-02-21T03:00:37;101936.09;;;8.12;100.00
85224;BME280;75619;51.316;4.824;2024-02-21T03:03:04;101940.97;;;8.19;100.00
85224;BME280;75619;51.316;4.824;2024-02-21T03:05:30;101938.34;;;8.19;100.00
85224;BME280;75619;51.316;4.824;2024-02-21T03:07:55;101914.44;;;8.24;100.00
85224;BME280;75619;51.316;4.824;2024-02-21T03:10:21;101911.22;;;8.17;100.00
85224;BME280;75619;51.316;4.824;2024-02-21T03:12:47;101903.41;;;8.16;100.00
85224;BME280;75619;51.316;4.824;2024-02-21T03:15:13;101906.91;;;8.16;100.00
85224;BME280;75619;51.316;4.824;2024-02-21T03:17:39;101897.44;;;8.12;100.00
85224;BME280;75619;51.316;4.824;2024-02-21T03:20:05;101888.69;;;8.12;100.00
85224;BME280;75619;51.316;4.824;2024-02-21T03:22:33;101883.56;;;8.28;100.00
85224;BME280;75619;51.316;4.824;2024-02-21T03:24:59;101891.53;;;8.26;100.00
85224;BME280;75619;51.316;4.824;2024-02-21T03:27:24;101886.31;;;8.25;100.00
85224;BME280;75619;51.316;4.824;2024-02-21T03:29:50;101880.34;;;8.21;100.00
85224;BME280;75619;51.316;4.824;2024-02-21T03:32:15;101881.94;;;8.25;100.00
85224;BME280;75619;51.316;4.824;2024-02-21T03:34:41;101874.91;;;8.24;100.00
85224;BME280;75619;51.316;4.824;2024-02-21T03:37:06;101869.66;;;8.24;100.00
85224;BME280;75619;51.316;4.824;2024-02-21T03:39:32;101866.16;;;8.24;100.00
85224;BME280;75619;51.316;4.824;2024-02-21T03:41:58;101865.38;;;8.22;100.00
85224;BME280;75619;51.316;4.824;2024-02-21T03:44:26;101868.09;;;8.20;100.00
85224;BME280;75619;51.316;4.824;2024-02-21T03:46:52;101871.59;;;8.21;100.00
85224;BME280;75619;51.316;4.824;2024-02-21T03:49:18;101874.22;;;8.21;100.00
85224;BME280;75619;51.316;4.824;2024-02-21T03:51:43;101866.13;;;8.25;100.00
85224;BME280;75619;51.316;4.824;2024-02-21T03:54:09;101856.56;;;8.23;100.00
85224;BME280;75619;51.316;4.824;2024-02-21T03:56:38;101848.56;;;8.24;100.00
85224;BME280;75619;51.316;4.824;2024-02-21T03:59:06;101850.44;;;8.22;100.00
85224;BME280;75619;51.316;4.824;2024-02-21T04:01:32;101855.00;;;8.18;100.00
85224;BME280;75619;51.316;4.824;2024-02-21T04:03:57;101862.69;;;8.23;100.00
85224;BME280;75619;51.316;4.824;2024-02-21T04:06:23;101855.00;;;8.18;100.00
85224;BME280;75619;51.316;4.824;2024-02-21T04:08:48;101855.63;;;8.24;100.00
85224;BME280;75619;51.316;4.824;2024-02-21T04:11:14;101855.88;;;8.19;100.00
85224;BME280;75619;51.316;4.824;2024-02-21T04:13:39;101863.28;;;8.30;100.00
85224;BME280;75619;51.316;4.824;2024-02-21T04:16:05;101861.69;;;8.26;100.00
85224;BME280;75619;51.316;4.824;2024-02-21T04:18:31;101856.56;;;8.23;100.00
85224;BME280;75619;51.316;4.824;2024-02-21T04:20:57;101859.50;;;8.16;100.00
85224;BME280;75619;51.316;4.824;2024-02-21T04:23:22;101853.16;;;8.21;100.00
85224;BME280;75619;51.316;4.824;2024-02-21T04:25:47;101863.53;;;8.24;100.00
85224;BME280;75619;51.316;4.824;2024-02-21T04:28:13;101855.00;;;8.18;100.00
85224;BME280;75619;51.316;4.824;2024-02-21T04:30:38;101855.22;;;8.14;100.00
85224;BME280;75619;51.316;4.824;2024-02-21T04:33:04;101854.94;;;8.20;100.00
85224;BME280;75619;51.316;4.824;2024-02-21T04:35:30;101848.66;;;8.23;100.00
85224;BME280;75619;51.316;4.824;2024-02-21T04:37:55;101846.81;;;8.25;100.00
85224;BME280;75619;51.316;4.824;2024-02-21T04:40:20;101845.91;;;8.26;100.00
85224;BME280;75619;51.316;4.824;2024-02-21T04:42:46;101839.91;;;8.22;100.00
85224;BME280;75619;51.316;4.824;2024-02-21T04:45:11;101841.53;;;8.25;100.00
85224;BME280;75619;51.316;4.824;2024-02-21T04:47:37;101843.69;;;8.16;100.00
85224;BME280;75619;51.316;4.824;2024-02-21T04:50:03;101821.69;;;8.17;100.00
85224;BME280;75619;51.316;4.824;2024-02-21T04:52:28;101818.44;;;8.12;100.00
85224;BME280;75619;51.316;4.824;2024-02-21T04:54:55;101814.88;;;8.13;100.00
85224;BME280;75619;51.316;4.824;2024-02-21T04:57:21;101810.22;;;8.18;100.00
85224;BME280;75619;51.316;4.824;2024-02-21T04:59:46;101807.59;;;8.18;100.00
85224;BME280;75619;51.316;4.824;2024-02-21T05:02:15;101803.56;;;8.11;100.00
85224;BME280;75619;51.316;4.824;2024-02-21T05:04:41;101809.59;;;8.13;100.00
85224;BME280;75619;51.316;4.824;2024-02-21T05:07:07;101814.16;;;8.10;100.00
85224;BME280;75619;51.316;4.824;2024-02-21T05:09:33;101807.03;;;8.12;100.00
85224;BME280;75619;51.316;4.824;2024-02-21T05:11:59;101794.44;;;8.18;100.00
85224;BME280;75619;51.316;4.824;2024-02-21T05:14:25;101788.31;;;8.18;100.00
85224;BME280;75619;51.316;4.824;2024-02-21T05:16:52;101792.88;;;8.14;100.00
85224;BME280;75619;51.316;4.824;2024-02-21T05:19:18;101781.94;;;8.22;100.00
85224;BME280;75619;51.316;4.824;2024-02-21T05:21:43;101773.88;;;8.27;100.00
85224;BME280;75619;51.316;4.824;2024-02-21T05:24:09;101769.44;;;8.27;100.00
85224;BME280;75619;51.316;4.824;2024-02-21T05:26:34;101768.00;;;8.20;100.00
85224;BME280;75619;51.316;4.824;2024-02-21T05:29:00;101775.06;;;8.19;100.00
85224;BME280;75619;51.316;4.824;2024-02-21T05:31:25;101760.09;;;8.20;100.00
85224;BME280;75619;51.316;4.824;2024-02-21T05:33:51;101759.56;;;8.13;100.00
85224;BME280;75619;51.316;4.824;2024-02-21T05:36:17;101743.75;;;8.13;100.00
85224;BME280;75619;51.316;4.824;2024-02-21T05:38:42;101743.63;;;8.16;100.00
85224;BME280;75619;51.316;4.824;2024-02-21T05:41:08;101750.06;;;8.11;100.00
85224;BME280;75619;51.316;4.824;2024-02-21T05:43:33;101745.78;;;8.08;100.00
85224;BME280;75619;51.316;4.824;2024-02-21T05:45:59;101751.19;;;8.05;100.00
85224;BME280;75619;51.316;4.824;2024-02-21T05:48:24;101752.81;;;8.08;100.00
85224;BME280;75619;51.316;4.824;2024-02-21T05:50:50;101746.16;;;8.01;100.00
85224;BME280;75619;51.316;4.824;2024-02-21T05:53:16;101741.75;;;8.01;100.00
85224;BME280;75619;51.316;4.824;2024-02-21T05:55:42;101739.19;;;8.00;100.00
85224;BME280;75619;51.316;4.824;2024-02-21T05:58:07;101729.56;;;7.99;100.00
85224;BME280;75619;51.316;4.824;2024-02-21T06:00:37;101731.69;;;7.92;100.00
85224;BME280;75619;51.316;4.824;2024-02-21T06:03:02;101722.94;;;7.92;100.00
85224;BME280;75619;51.316;4.824;2024-02-21T06:05:28;101717.72;;;7.90;100.00
85224;BME280;75619;51.316;4.824;2024-02-21T06:07:54;101710.84;;;7.88;100.00
85224;BME280;75619;51.316;4.824;2024-02-21T06:10:19;101706.66;;;7.84;100.00
85224;BME280;75619;51.316;4.824;2024-02-21T06:12:45;101698.81;;;7.82;100.00
85224;BME280;75619;51.316;4.824;2024-02-21T06:15:10;101695.41;;;7.80;100.00
85224;BME280;75619;51.316;4.824;2024-02-21T06:17:36;101684.75;;;7.83;100.00
85224;BME280;75619;51.316;4.824;2024-02-21T06:20:01;101694.41;;;7.83;100.00
85224;BME280;75619;51.316;4.824;2024-02-21T06:22:27;101691.09;;;7.79;100.00
85224;BME280;75619;51.316;4.824;2024-02-21T06:24:53;101695.56;;;7.77;100.00
85224;BME280;75619;51.316;4.824;2024-02-21T06:27:19;101690.63;;;7.71;100.00
85224;BME280;75619;51.316;4.824;2024-02-21T06:29:45;101712.03;;;7.64;100.00
85224;BME280;75619;51.316;4.824;2024-02-21T06:32:10;101712.19;;;7.61;100.00
85224;BME280;75619;51.316;4.824;2024-02-21T06:34:36;101706.00;;;7.62;100.00
85224;BME280;75619;51.316;4.824;2024-02-21T06:37:02;101705.00;;;7.64;100.00
85224;BME280;75619;51.316;4.824;2024-02-21T06:39:27;101705.47;;;7.72;100.00
85224;BME280;75619;51.316;4.824;2024-02-21T06:41:54;101708.03;;;7.74;100.00
85224;BME280;75619;51.316;4.824;2024-02-21T06:44:21;101701.28;;;7.68;100.00
85224;BME280;75619;51.316;4.824;2024-02-21T06:46:47;101696.50;;;7.59;100.00
85224;BME280;75619;51.316;4.824;2024-02-21T06:49:13;101700.03;;;7.58;100.00
85224;BME280;75619;51.316;4.824;2024-02-21T06:51:45;101699.13;;;7.59;100.00
85224;BME280;75619;51.316;4.824;2024-02-21T06:54:11;101694.06;;;7.55;100.00
85224;BME280;75619;51.316;4.824;2024-02-21T06:56:37;101702.19;;;7.50;100.00
85224;BME280;75619;51.316;4.824;2024-02-21T06:59:03;101691.50;;;7.53;100.00
85224;BME280;75619;51.316;4.824;2024-02-21T07:01:29;101686.09;;;7.56;100.00
85224;BME280;75619;51.316;4.824;2024-02-21T07:03:55;101685.03;;;7.60;100.00
85224;BME280;75619;51.316;4.824;2024-02-21T07:06:22;101675.56;;;7.56;100.00
85224;BME280;75619;51.316;4.824;2024-02-21T07:08:47;101678.13;;;7.58;100.00
85224;BME280;75619;51.316;4.824;2024-02-21T07:11:13;101670.94;;;7.61;100.00
85224;BME280;75619;51.316;4.824;2024-02-21T07:13:38;101664.63;;;7.65;100.00
85224;BME280;75619;51.316;4.824;2024-02-21T07:16:04;101671.00;;;7.60;100.00
85224;BME280;75619;51.316;4.824;2024-02-21T07:18:30;101673.63;;;7.60;100.00
85224;BME280;75619;51.316;4.824;2024-02-21T07:20:55;101663.84;;;7.63;100.00
85224;BME280;75619;51.316;4.824;2024-02-21T07:23:21;101665.84;;;7.75;100.00
85224;BME280;75619;51.316;4.824;2024-02-21T07:25:47;101659.34;;;7.82;100.00
85224;BME280;75619;51.316;4.824;2024-02-21T07:28:12;101663.38;;;7.89;100.00
85224;BME280;75619;51.316;4.824;2024-02-21T07:30:39;101649.22;;;7.92;100.00
85224;BME280;75619;51.316;4.824;2024-02-21T07:33:05;101658.03;;;7.91;100.00
85224;BME280;75619;51.316;4.824;2024-02-21T07:35:32;101650.53;;;8.00;100.00
85224;BME280;75619;51.316;4.824;2024-02-21T07:37:58;101640.69;;;8.04;100.00
85224;BME280;75619;51.316;4.824;2024-02-21T07:40:23;101627.94;;;7.96;100.00
85224;BME280;75619;51.316;4.824;2024-02-21T07:42:49;101620.47;;;8.04;100.00
85224;BME280;75619;51.316;4.824;2024-02-21T07:45:14;101631.56;;;8.11;100.00
85224;BME280;75619;51.316;4.824;2024-02-21T07:47:40;101618.28;;;8.12;100.00
85224;BME280;75619;51.316;4.824;2024-02-21T07:50:06;101618.56;;;8.24;100.00
85224;BME280;75619;51.316;4.824;2024-02-21T07:52:32;101622.72;;;8.12;100.00
85224;BME280;75619;51.316;4.824;2024-02-21T07:54:58;101610.41;;;8.30;100.00
85224;BME280;75619;51.316;4.824;2024-02-21T07:57:23;101600.63;;;8.32;100.00
85224;BME280;75619;51.316;4.824;2024-02-21T07:59:49;101591.69;;;8.34;100.00
85224;BME280;75619;51.316;4.824;2024-02-21T08:02:15;101584.88;;;8.30;100.00
85224;BME280;75619;51.316;4.824;2024-02-21T08:04:40;101579.63;;;8.30;100.00
85224;BME280;75619;51.316;4.824;2024-02-21T08:07:06;101578.47;;;8.36;100.00
85224;BME280;75619;51.316;4.824;2024-02-21T08:09:32;101582.22;;;8.47;100.00
85224;BME280;75619;51.316;4.824;2024-02-21T08:11:57;101568.59;;;8.55;100.00
85224;BME280;75619;51.316;4.824;2024-02-21T08:14:23;101572.00;;;8.57;100.00
85224;BME280;75619;51.316;4.824;2024-02-21T08:16:50;101565.91;;;8.56;100.00
85224;BME280;75619;51.316;4.824;2024-02-21T08:19:18;101551.63;;;8.60;100.00
85224;BME280;75619;51.316;4.824;2024-02-21T08:21:44;101545.31;;;8.63;100.00
85224;BME280;75619;51.316;4.824;2024-02-21T08:24:13;101550.34;;;8.67;100.00
85224;BME280;75619;51.316;4.824;2024-02-21T08:26:41;101550.88;;;8.58;100.00
85224;BME280;75619;51.316;4.824;2024-02-21T08:29:07;101544.72;;;8.58;100.00
85224;BME280;75619;51.316;4.824;2024-02-21T08:31:32;101536.59;;;8.62;100.00
85224;BME280;75619;51.316;4.824;2024-02-21T08:34:00;101549.25;;;8.56;100.00
85224;BME280;75619;51.316;4.824;2024-02-21T08:36:34;101539.03;;;8.50;100.00
85224;BME280;75619;51.316;4.824;2024-02-21T08:39:01;101539.28;;;8.45;100.00
85224;BME280;75619;51.316;4.824;2024-02-21T08:41:27;101532.56;;;8.40;100.00
85224;BME280;75619;51.316;4.824;2024-02-21T08:43:54;101534.78;;;8.32;100.00
85224;BME280;75619;51.316;4.824;2024-02-21T08:46:26;101538.94;;;8.36;100.00
85224;BME280;75619;51.316;4.824;2024-02-21T08:48:52;101532.81;;;8.35;100.00
85224;BME280;75619;51.316;4.824;2024-02-21T08:51:18;101527.34;;;8.23;100.00
85224;BME280;75619;51.316;4.824;2024-02-21T08:53:45;101528.09;;;8.25;100.00
85224;BME280;75619;51.316;4.824;2024-02-21T08:56:11;101527.34;;;8.23;100.00
85224;BME280;75619;51.316;4.824;2024-02-21T08:58:37;101526.66;;;8.19;100.00
85224;BME280;75619;51.316;4.824;2024-02-21T09:01:03;101524.16;;;8.16;100.00
85224;BME280;75619;51.316;4.824;2024-02-21T09:03:38;101525.03;;;8.16;100.00
85224;BME280;75619;51.316;4.824;2024-02-21T09:06:05;101525.88;;;8.17;100.00
85224;BME280;75619;51.316;4.824;2024-02-21T09:08:31;101525.56;;;8.23;100.00
85224;BME280;75619;51.316;4.824;2024-02-21T09:10:57;101511.06;;;8.32;100.00
85224;BME280;75619;51.316;4.824;2024-02-21T09:13:24;101514.78;;;8.28;100.00
85224;BME280;75619;51.316;4.824;2024-02-21T09:15:49;101508.25;;;8.35;100.00
85224;BME280;75619;51.316;4.824;2024-02-21T09:18:16;101505.81;;;8.32;100.00
85224;BME280;75619;51.316;4.824;2024-02-21T09:20:42;101495.19;;;8.33;100.00
85224;BME280;75619;51.316;4.824;2024-02-21T09:23:08;101489.66;;;8.38;100.00
85224;BME280;75619;51.316;4.824;2024-02-21T09:25:34;101477.31;;;8.54;100.00
85224;BME280;75619;51.316;4.824;2024-02-21T09:28:01;101461.69;;;8.51;100.00
85224;BME280;75619;51.316;4.824;2024-02-21T09:30:27;101462.19;;;8.57;100.00
85224;BME280;75619;51.316;4.824;2024-02-21T09:32:53;101451.28;;;8.63;100.00
85224;BME280;75619;51.316;4.824;2024-02-21T09:35:18;101445.59;;;8.71;100.00
85224;BME280;75619;51.316;4.824;2024-02-21T09:37:44;101430.34;;;8.76;100.00
85224;BME280;75619;51.316;4.824;2024-02-21T09:40:10;101418.06;;;8.90;100.00
85224;BME280;75619;51.316;4.824;2024-02-21T09:42:41;101408.53;;;9.04;100.00
85224;BME280;75619;51.316;4.824;2024-02-21T09:45:19;101414.81;;;9.01;100.00
85224;BME280;75619;51.316;4.824;2024-02-21T09:50:38;101388.72;;;9.11;100.00
85224;BME280;75619;51.316;4.824;2024-02-21T09:53:06;101390.19;;;9.16;100.00
85224;BME280;75619;51.316;4.824;2024-02-21T09:55:35;101372.66;;;9.29;100.00
85224;BME280;75619;51.316;4.824;2024-02-21T09:58:04;101361.72;;;9.35;100.00
85224;BME280;75619;51.316;4.824;2024-02-21T10:00:29;101350.22;;;9.36;100.00
85224;BME280;75619;51.316;4.824;2024-02-21T10:02:55;101340.91;;;9.59;100.00
85224;BME280;75619;51.316;4.824;2024-02-21T10:05:21;101337.50;;;9.57;100.00
85224;BME280;75619;51.316;4.824;2024-02-21T10:07:48;101318.75;;;9.61;100.00
85224;BME280;75619;51.316;4.824;2024-02-21T10:10:14;101305.53;;;9.61;100.00
85224;BME280;75619;51.316;4.824;2024-02-21T10:12:51;101297.63;;;9.61;100.00
85224;BME280;75619;51.316;4.824;2024-02-21T10:15:21;101273.09;;;9.73;100.00
85224;BME280;75619;51.316;4.824;2024-02-21T10:17:48;101275.22;;;9.81;100.00
85224;BME280;75619;51.316;4.824;2024-02-21T10:20:13;101277.13;;;9.79;100.00
85224;BME280;75619;51.316;4.824;2024-02-21T10:22:40;101277.97;;;9.79;100.00
85224;BME280;75619;51.316;4.824;2024-02-21T10:25:12;101276.25;;;9.93;100.00
85224;BME280;75619;51.316;4.824;2024-02-21T10:27:39;101261.88;;;9.97;100.00
85224;BME280;75619;51.316;4.824;2024-02-21T10:30:06;101262.00;;;9.95;100.00
85224;BME280;75619;51.316;4.824;2024-02-21T10:32:32;101270.44;;;10.00;100.00
85224;BME280;75619;51.316;4.824;2024-02-21T10:35:04;101258.84;;;10.03;100.00
85224;BME280;75619;51.316;4.824;2024-02-21T10:37:30;101262.94;;;9.94;100.00
85224;BME280;75619;51.316;4.824;2024-02-21T10:39:57;101252.19;;;9.97;100.00
85224;BME280;75619;51.316;4.824;2024-02-21T10:42:29;101247.97;;;10.07;100.00
85224;BME280;75619;51.316;4.824;2024-02-21T10:45:00;101259.59;;;10.05;100.00
85224;BME280;75619;51.316;4.824;2024-02-21T10:47:31;101246.69;;;10.00;100.00
85224;BME280;75619;51.316;4.824;2024-02-21T10:50:02;101252.78;;;10.15;100.00
85224;BME280;75619;51.316;4.824;2024-02-21T10:55:04;101238.72;;;10.14;100.00
85224;BME280;75619;51.316;4.824;2024-02-21T10:57:36;101241.09;;;10.44;100.00
85224;BME280;75619;51.316;4.824;2024-02-21T11:00:04;101234.06;;;10.70;100.00
85224;BME280;75619;51.316;4.824;2024-02-21T11:02:33;101220.41;;;10.50;100.00
85224;BME280;75619;51.316;4.824;2024-02-21T11:04:59;101215.53;;;10.57;100.00
85224;BME280;75619;51.316;4.824;2024-02-21T11:07:27;101209.59;;;10.66;100.00
85224;BME280;75619;51.316;4.824;2024-02-21T11:09:53;101217.97;;;10.60;100.00
85224;BME280;75619;51.316;4.824;2024-02-21T11:12:21;101226.94;;;10.45;100.00
85224;BME280;75619;51.316;4.824;2024-02-21T11:14:47;101211.19;;;10.43;100.00
85224;BME280;75619;51.316;4.824;2024-02-21T11:17:17;101204.97;;;10.44;100.00
85224;BME280;75619;51.316;4.824;2024-02-21T11:19:42;101187.41;;;10.56;100.00
85224;BME280;75619;51.316;4.824;2024-02-21T11:22:18;101164.47;;;10.69;100.00
85224;BME280;75619;51.316;4.824;2024-02-21T11:24:44;101165.06;;;10.85;100.00
85224;BME280;75619;51.316;4.824;2024-02-21T11:27:14;101155.53;;;10.83;100.00
85224;BME280;75619;51.316;4.824;2024-02-21T11:29:49;101148.13;;;11.00;100.00
85224;BME280;75619;51.316;4.824;2024-02-21T11:32:20;101145.66;;;11.10;100.00
85224;BME280;75619;51.316;4.824;2024-02-21T11:34:54;101134.50;;;11.17;100.00
85224;BME280;75619;51.316;4.824;2024-02-21T11:37:20;101134.63;;;11.16;100.00
85224;BME280;75619;51.316;4.824;2024-02-21T11:39:45;101130.25;;;11.27;100.00
85224;BME280;75619;51.316;4.824;2024-02-21T11:42:11;101117.03;;;11.27;100.00
85224;BME280;75619;51.316;4.824;2024-02-21T11:44:38;101113.97;;;11.45;100.00
85224;BME280;75619;51.316;4.824;2024-02-21T11:47:06;101107.84;;;11.44;100.00
85224;BME280;75619;51.316;4.824;2024-02-21T11:49:37;101102.09;;;11.50;100.00
85224;BME280;75619;51.316;4.824;2024-02-21T11:52:05;101088.28;;;11.34;100.00
85224;BME280;75619;51.316;4.824;2024-02-21T11:54:31;101077.41;;;11.26;100.00
85224;BME280;75619;51.316;4.824;2024-02-21T11:56:56;101071.31;;;11.25;100.00
85224;BME280;75619;51.316;4.824;2024-02-21T11:59:22;101063.56;;;11.22;100.00
85224;BME280;75619;51.316;4.824;2024-02-21T12:01:52;101060.13;;;11.09;100.00
85224;BME280;75619;51.316;4.824;2024-02-21T12:04:21;101052.19;;;11.09;100.00
85224;BME280;75619;51.316;4.824;2024-02-21T12:06:49;101047.34;;;11.03;100.00
85224;BME280;75619;51.316;4.824;2024-02-21T12:09:16;101050.28;;;11.11;100.00
85224;BME280;75619;51.316;4.824;2024-02-21T12:11:42;101029.81;;;11.02;100.00
85224;BME280;75619;51.316;4.824;2024-02-21T12:14:08;101028.34;;;10.98;100.00
85224;BME280;75619;51.316;4.824;2024-02-21T12:16:34;101022.81;;;11.01;100.00
85224;BME280;75619;51.316;4.824;2024-02-21T12:19:03;101013.81;;;10.80;100.00
85224;BME280;75619;51.316;4.824;2024-02-21T12:21:33;101002.56;;;10.89;100.00
85224;BME280;75619;51.316;4.824;2024-02-21T12:24:14;100999.19;;;10.87;100.00
85224;BME280;75619;51.316;4.824;2024-02-21T12:26:40;100991.78;;;10.92;100.00
85224;BME280;75619;51.316;4.824;2024-02-21T12:29:07;100991.47;;;10.84;100.00
85224;BME280;75619;51.316;4.824;2024-02-21T12:31:38;100978.47;;;10.81;100.00
85224;BME280;75619;51.316;4.824;2024-02-21T12:34:04;100973.72;;;10.86;100.00
85224;BME280;75619;51.316;4.824;2024-02-21T12:36:33;100985.63;;;10.92;100.00
85224;BME280;75619;51.316;4.824;2024-02-21T12:38:59;100990.41;;;10.87;100.00
85224;BME280;75619;51.316;4.824;2024-02-21T12:41:27;100979.94;;;10.85;100.00
85224;BME280;75619;51.316;4.824;2024-02-21T12:43:53;100968.06;;;10.91;100.00
85224;BME280;75619;51.316;4.824;2024-02-21T12:46:19;100961.16;;;10.77;100.00
85224;BME280;75619;51.316;4.824;2024-02-21T12:48:44;100966.03;;;10.71;100.00